Time;durP1;ratioP1;P1;durP2;ratioP2;P2;SDS_P1;SDS_P2;PMS_P1;PMS_P2;Temp;Humidity;BMP_temperature;BMP_pressure;BME280_temperature;BME280_humidity;BME280_pressure;Samples;Min_cycle;Max_cycle;Signal;HPM_P1;HPM_P2
2023/08/21 00:00:54;;;;;;;;;;;;;;;21.98;27.99;97953.66;4956573;29;952;-74
2023/08/21 00:03:20;;;;;;;;;;;;;;;21.90;28.13;97950.22;4924737;29;1903;-73
2023/08/21 00:05:45;;;;;;;;;;;;;;;21.73;28.34;97948.72;4957515;29;921;-74
2023/08/21 00:08:10;;;;;;;;;;;;;;;21.84;27.82;97955.66;4958001;29;926;-74
2023/08/21 00:10:40;;;;;;;;;;;;;;;22.04;27.66;97960.38;4940211;29;932;-74
2023/08/21 00:13:06;;;;;;;;;;;;;;;22.05;27.53;97954.25;4939459;29;986;-74
2023/08/21 00:15:31;;;;;;;;;;;;;;;22.06;27.48;97955.03;4957465;29;917;-74
2023/08/21 00:17:57;;;;;;;;;;;;;;;21.58;28.15;97956.78;4940446;29;1233;-74
2023/08/21 00:20:23;;;;;;;;;;;;;;;21.88;27.94;97949.09;4940351;29;918;-74
2023/08/21 00:22:48;;;;;;;;;;;;;;;21.86;28.15;97955.19;4924469;29;1993;-74
2023/08/21 00:25:14;;;;;;;;;;;;;;;21.89;28.16;97953.53;4940473;29;1046;-74
2023/08/21 00:27:39;;;;;;;;;;;;;;;21.89;28.02;97956.34;4957204;29;944;-73
2023/08/21 00:30:05;;;;;;;;;;;;;;;22.02;27.78;97951.50;4957743;29;857;-75
2023/08/21 00:32:30;;;;;;;;;;;;;;;22.04;27.53;97949.81;4924536;29;1137;-74
2023/08/21 00:34:56;;;;;;;;;;;;;;;22.14;27.51;97950.78;4960191;29;985;-74
2023/08/21 00:37:21;;;;;;;;;;;;;;;21.98;27.88;97957.28;4961379;29;864;-74
2023/08/21 00:39:47;;;;;;;;;;;;;;;22.07;27.83;97956.63;4944201;29;997;-74
2023/08/21 00:42:12;;;;;;;;;;;;;;;21.92;27.85;97952.63;4961645;29;1914;-74
2023/08/21 00:44:38;;;;;;;;;;;;;;;22.01;27.95;97947.09;4944196;29;1133;-74
2023/08/21 00:47:03;;;;;;;;;;;;;;;21.93;27.78;97945.72;4958582;28;1206;-73
2023/08/21 00:49:29;;;;;;;;;;;;;;;21.96;28.11;97950.47;4963124;28;1272;-74
2023/08/21 00:51:54;;;;;;;;;;;;;;;21.66;28.57;97955.38;4963422;28;1374;-73
2023/08/21 00:54:20;;;;;;;;;;;;;;;21.46;28.83;97951.88;4962951;28;1128;-74
2023/08/21 00:56:46;;;;;;;;;;;;;;;21.55;28.71;97949.19;4963194;28;995;-73
2023/08/21 00:59:13;;;;;;;;;;;;;;;21.94;28.17;97944.47;4963240;28;1250;-73
2023/08/21 01:01:39;;;;;;;;;;;;;;;21.76;28.34;97942.94;4963010;28;1424;-74
2023/08/21 01:04:04;;;;;;;;;;;;;;;21.96;28.00;97956.13;4962985;28;1986;-74
2023/08/21 01:06:30;;;;;;;;;;;;;;;21.99;27.70;97949.59;4962666;28;955;-74
2023/08/21 01:09:05;;;;;;;;;;;;;;;21.74;28.33;97951.09;4962699;28;988;-73
2023/08/21 01:11:52;;;;;;;;;;;;;;;21.89;27.97;97959.19;4904751;29;1331;-75
2023/08/21 01:14:17;;;;;;;;;;;;;;;21.95;27.99;97954.56;4848472;29;1291;-74
2023/08/21 01:16:43;;;;;;;;;;;;;;;21.81;28.09;97956.56;4833235;29;1330;-74
2023/08/21 01:19:09;;;;;;;;;;;;;;;21.90;28.08;97957.94;4833146;29;1162;-74
2023/08/21 01:21:34;;;;;;;;;;;;;;;21.67;28.67;97945.63;4848419;29;1120;-73
2023/08/21 01:24:00;;;;;;;;;;;;;;;21.87;28.09;97953.19;4832970;29;1903;-73
2023/08/21 01:26:25;;;;;;;;;;;;;;;21.72;28.33;97952.78;4848590;29;1470;-75
2023/08/21 01:28:52;;;;;;;;;;;;;;;21.83;28.32;97948.41;4833156;29;1292;-73
2023/08/21 01:31:36;;;;;;;;;;;;;;;21.70;28.51;97950.38;4832939;29;1165;-76
2023/08/21 01:34:04;;;;;;;;;;;;;;;21.94;27.91;97952.97;4833004;29;1508;-76
2023/08/21 01:36:30;;;;;;;;;;;;;;;22.10;27.58;97948.06;4848441;29;940;-75
2023/08/21 01:38:55;;;;;;;;;;;;;;;22.12;27.64;97947.59;4848059;29;957;-77
2023/08/21 01:41:23;;;;;;;;;;;;;;;21.56;28.60;97945.13;4864352;29;977;-76
2023/08/21 01:43:49;;;;;;;;;;;;;;;21.83;28.29;97948.41;4900330;29;1911;-76
2023/08/21 01:46:14;;;;;;;;;;;;;;;21.94;27.98;97950.94;4900246;29;1345;-76
2023/08/21 01:48:40;;;;;;;;;;;;;;;21.81;28.13;97950.91;4885094;29;1279;-76
2023/08/21 01:51:05;;;;;;;;;;;;;;;21.89;27.90;97956.34;4915090;29;1018;-76
2023/08/21 01:53:30;;;;;;;;;;;;;;;21.74;28.22;97951.09;4938363;29;962;-76
2023/08/21 01:55:56;;;;;;;;;;;;;;;21.89;27.94;97950.69;4938230;29;1002;-77
2023/08/21 01:58:22;;;;;;;;;;;;;;;22.03;27.78;97962.41;4922187;29;1335;-76
2023/08/21 02:00:49;;;;;;;;;;;;;;;21.93;27.99;97952.19;4922506;29;1350;-75
2023/08/21 02:03:14;;;;;;;;;;;;;;;21.91;27.81;97957.47;4922400;29;1915;-76
2023/08/21 02:05:40;;;;;;;;;;;;;;;21.90;28.01;97952.28;4922096;29;1039;-76
2023/08/21 02:08:11;;;;;;;;;;;;;;;21.79;28.06;97952.56;4938279;29;980;-76
2023/08/21 02:10:36;;;;;;;;;;;;;;;21.67;28.30;97954.13;4922289;29;1166;-76
2023/08/21 02:13:02;;;;;;;;;;;;;;;21.71;28.33;97946.34;4938002;29;1164;-76
2023/08/21 02:15:27;;;;;;;;;;;;;;;21.77;28.12;97955.88;4943363;28;1205;-75
2023/08/21 02:17:54;;;;;;;;;;;;;;;21.43;28.68;97952.75;4978857;28;897;-76
2023/08/21 02:20:19;;;;;;;;;;;;;;;21.78;28.04;97960.28;4961451;28;1182;-76
2023/08/21 02:22:45;;;;;;;;;;;;;;;21.77;28.19;97950.19;4961711;28;1993;-76
2023/08/21 02:25:11;;;;;;;;;;;;;;;21.83;27.90;97954.06;4961165;28;1420;-77
2023/08/21 02:27:36;;;;;;;;;;;;;;;21.81;28.24;97956.56;4961277;28;1271;-76
2023/08/21 02:30:02;;;;;;;;;;;;;;;21.84;28.17;97952.03;4944283;28;1187;-74
2023/08/21 02:32:29;;;;;;;;;;;;;;;21.97;28.24;97960.59;4945561;28;1138;-75
2023/08/21 02:34:54;;;;;;;;;;;;;;;21.59;28.72;97966.88;4961256;28;1035;-76
2023/08/21 02:37:20;;;;;;;;;;;;;;;21.81;28.46;97956.56;4961200;28;931;-75
2023/08/21 02:39:45;;;;;;;;;;;;;;;21.58;28.71;97960.41;4978246;28;1220;-76
2023/08/21 02:42:11;;;;;;;;;;;;;;;21.94;28.12;97959.44;4961511;28;1914;-77
2023/08/21 02:44:36;;;;;;;;;;;;;;;21.81;28.49;97956.56;4961272;28;1025;-76
2023/08/21 02:47:02;;;;;;;;;;;;;;;21.65;28.73;97965.09;4961131;28;1439;-76
2023/08/21 02:49:30;;;;;;;;;;;;;;;22.04;28.21;97957.53;4961912;28;1428;-76
2023/08/21 02:51:56;;;;;;;;;;;;;;;21.98;27.99;97953.66;4961188;28;1276;-75
2023/08/21 02:54:21;;;;;;;;;;;;;;;21.74;28.61;97962.41;4978407;28;996;-76
2023/08/21 02:56:48;;;;;;;;;;;;;;;21.71;28.83;97969.00;4960123;28;1442;-76
2023/08/21 02:59:13;;;;;;;;;;;;;;;21.91;28.54;97959.53;4961089;28;1065;-75
2023/08/21 03:01:39;;;;;;;;;;;;;;;21.53;29.20;97960.97;4959787;28;1034;-76
2023/08/21 03:04:04;;;;;;;;;;;;;;;22.16;28.38;97959.63;4978444;28;1914;-76
2023/08/21 03:06:30;;;;;;;;;;;;;;;22.05;28.27;97967.63;4961143;28;1111;-75
2023/08/21 03:08:55;;;;;;;;;;;;;;;22.00;28.47;97968.16;4960772;28;1152;-76
2023/08/21 03:11:21;;;;;;;;;;;;;;;22.10;28.36;97967.06;4960910;28;1168;-76
2023/08/21 03:13:46;;;;;;;;;;;;;;;22.07;28.20;97959.44;4960530;28;986;-76
2023/08/21 03:16:12;;;;;;;;;;;;;;;21.98;28.60;97962.16;4960663;28;982;-76
2023/08/21 03:18:53;;;;;;;;;;;;;;;21.71;28.93;97969.00;4960890;28;1046;-75
2023/08/21 03:21:18;;;;;;;;;;;;;;;21.72;28.97;97976.25;4960694;28;1059;-77
2023/08/21 03:23:44;;;;;;;;;;;;;;;21.79;29.00;97964.69;4960825;28;1931;-76
2023/08/21 03:26:09;;;;;;;;;;;;;;;21.60;29.22;97974.13;4960618;28;1046;-76
2023/08/21 03:28:35;;;;;;;;;;;;;;;21.67;29.16;97971.13;4960704;28;1086;-76
2023/08/21 03:31:01;;;;;;;;;;;;;;;21.90;28.62;97975.72;4960854;28;921;-75
2023/08/21 03:33:28;;;;;;;;;;;;;;;22.07;28.64;97979.28;4944913;28;1322;-75
2023/08/21 03:35:54;;;;;;;;;;;;;;;21.97;28.88;97980.41;4958941;28;1279;-75
2023/08/21 03:38:21;;;;;;;;;;;;;;;21.95;28.61;97982.88;4927068;28;1372;-76
2023/08/21 03:40:47;;;;;;;;;;;;;;;21.86;28.94;97980.69;4886971;29;1714;-75
2023/08/21 03:43:12;;;;;;;;;;;;;;;21.93;28.94;97982.56;4935790;29;1919;-76
2023/08/21 03:45:39;;;;;;;;;;;;;;;22.06;28.87;97980.53;4936482;29;1252;-77
2023/08/21 03:48:06;;;;;;;;;;;;;;;22.13;28.64;97976.75;4889962;29;1158;-76
2023/08/21 03:50:31;;;;;;;;;;;;;;;21.89;29.16;97996.00;4936752;29;1060;-76
2023/08/21 03:52:57;;;;;;;;;;;;;;;21.96;28.82;97981.63;4920917;29;1198;-77
2023/08/21 03:55:22;;;;;;;;;;;;;;;22.01;29.04;97979.03;4898542;29;1176;-76
2023/08/21 03:57:48;;;;;;;;;;;;;;;21.90;29.13;97974.94;4897483;29;1716;-76
2023/08/21 04:00:14;;;;;;;;;;;;;;;21.95;29.11;97986.50;4883296;29;1144;-76
2023/08/21 04:02:42;;;;;;;;;;;;;;;21.68;29.32;97984.03;4868250;29;1978;-77
2023/08/21 04:05:10;;;;;;;;;;;;;;;21.69;29.35;97994.09;4898780;29;1357;-76
2023/08/21 04:07:36;;;;;;;;;;;;;;;21.84;29.08;97992.47;4897745;29;1580;-76
2023/08/21 04:10:01;;;;;;;;;;;;;;;21.74;29.26;97985.06;4898553;29;1067;-75
2023/08/21 04:12:27;;;;;;;;;;;;;;;21.91;29.27;97987.84;4916390;29;1439;-77
2023/08/21 04:14:52;;;;;;;;;;;;;;;21.94;28.89;97986.97;4936474;29;1454;-76
2023/08/21 04:17:23;;;;;;;;;;;;;;;22.07;28.79;97996.28;4920127;29;1484;-76
2023/08/21 04:19:49;;;;;;;;;;;;;;;21.86;29.22;97992.03;4935955;29;1398;-75
2023/08/21 04:22:16;;;;;;;;;;;;;;;21.74;29.54;97990.72;4920782;29;1906;-76
2023/08/21 04:24:42;;;;;;;;;;;;;;;21.93;29.09;97979.72;4920378;29;1029;-77
2023/08/21 04:27:08;;;;;;;;;;;;;;;21.88;29.07;97989.56;4882677;29;1228;-77
2023/08/21 04:29:35;;;;;;;;;;;;;;;22.04;28.84;97997.19;4898524;29;974;-76
2023/08/21 04:32:00;;;;;;;;;;;;;;;22.09;28.60;97988.16;4870751;29;1303;-76
2023/08/21 04:34:26;;;;;;;;;;;;;;;21.97;28.98;97991.75;4900547;29;1466;-76
2023/08/21 04:36:52;;;;;;;;;;;;;;;22.05;28.78;97990.28;4916158;29;1479;-76
2023/08/21 04:39:18;;;;;;;;;;;;;;;22.10;28.70;98001.06;4901419;29;1033;-75
2023/08/21 04:41:45;;;;;;;;;;;;;;;22.05;29.01;98004.44;4901422;29;1181;-76
2023/08/21 04:44:11;;;;;;;;;;;;;;;22.01;28.97;97998.09;4885815;29;1914;-77
2023/08/21 04:46:36;;;;;;;;;;;;;;;21.88;29.18;97998.06;4917164;29;1084;-76
2023/08/21 04:49:02;;;;;;;;;;;;;;;22.04;28.70;97997.19;4917227;29;1273;-76
2023/08/21 04:51:27;;;;;;;;;;;;;;;21.95;29.02;97999.88;4916415;29;1513;-75
2023/08/21 04:53:53;;;;;;;;;;;;;;;21.75;29.12;97997.19;4891986;29;2049;-76
2023/08/21 04:56:22;;;;;;;;;;;;;;;21.99;28.93;98000.59;4906063;29;1730;-76
2023/08/21 04:58:48;;;;;;;;;;;;;;;22.21;28.63;98001.59;4930333;28;1701;-76
2023/08/21 05:01:13;;;;;;;;;;;;;;;21.96;29.22;98004.31;4940240;29;1373;-76
2023/08/21 05:03:43;;;;;;;;;;;;;;;21.59;29.72;98000.84;4940454;29;1994;-77
2023/08/21 05:06:09;;;;;;;;;;;;;;;21.97;29.10;98006.72;4940929;29;1232;-77
2023/08/21 05:08:35;;;;;;;;;;;;;;;22.06;29.25;97991.88;4940190;29;1389;-76
2023/08/21 05:11:01;;;;;;;;;;;;;;;22.06;29.23;98006.03;4940274;29;1550;-76
2023/08/21 05:13:30;;;;;;;;;;;;;;;21.99;29.26;98006.25;4939528;29;1875;-76
2023/08/21 05:15:56;;;;;;;;;;;;;;;22.09;29.06;97993.81;4924676;29;1140;-76
2023/08/21 05:18:23;;;;;;;;;;;;;;;22.26;28.79;98008.75;4940197;28;1068;-75
2023/08/21 05:20:48;;;;;;;;;;;;;;;22.16;29.03;97996.47;4938833;29;1157;-75
2023/08/21 05:23:15;;;;;;;;;;;;;;;21.89;29.70;98001.69;4939221;29;1907;-77
2023/08/21 05:25:45;;;;;;;;;;;;;;;22.03;29.23;97998.44;4939322;29;1203;-76
2023/08/21 05:28:11;;;;;;;;;;;;;;;21.93;29.79;98002.38;4921688;29;2083;-77
2023/08/21 05:30:36;;;;;;;;;;;;;;;22.06;29.63;97998.31;4920406;29;1016;-76
2023/08/21 05:33:02;;;;;;;;;;;;;;;22.16;29.42;97998.50;4885451;29;1395;-76
2023/08/21 05:35:28;;;;;;;;;;;;;;;22.53;28.77;98005.50;4870117;29;1102;-76
2023/08/21 05:37:54;;;;;;;;;;;;;;;22.18;29.16;98007.38;4885555;29;1354;-77
2023/08/21 05:40:19;;;;;;;;;;;;;;;22.13;29.44;98008.72;4885403;29;1324;-76
2023/08/21 05:42:45;;;;;;;;;;;;;;;21.90;29.48;98008.94;4868684;29;1988;-76
2023/08/21 05:45:11;;;;;;;;;;;;;;;22.15;29.13;98005.44;4885038;29;2092;-76
2023/08/21 05:47:36;;;;;;;;;;;;;;;22.11;29.33;98002.69;4910800;29;1831;-76
2023/08/21 05:50:03;;;;;;;;;;;;;;;22.19;29.26;98004.09;4919837;29;1184;-76
2023/08/21 05:52:29;;;;;;;;;;;;;;;22.26;28.94;98009.53;4903911;29;1109;-76
2023/08/21 05:54:54;;;;;;;;;;;;;;;22.30;28.96;98010.22;4904476;29;1171;-76
2023/08/21 05:57:20;;;;;;;;;;;;;;;22.12;29.36;97998.59;4900594;29;1051;-77
2023/08/21 05:59:46;;;;;;;;;;;;;;;21.96;29.61;98004.31;4885175;29;1129;-76
2023/08/21 06:02:11;;;;;;;;;;;;;;;22.19;29.38;98006.91;4881600;29;1893;-76
2023/08/21 06:04:37;;;;;;;;;;;;;;;22.08;29.33;98009.22;4894665;29;1980;-76
2023/08/21 06:07:03;;;;;;;;;;;;;;;22.15;29.26;98009.06;4919263;29;1244;-76
2023/08/21 06:09:29;;;;;;;;;;;;;;;22.28;29.34;98017.59;4938902;29;1731;-76
2023/08/21 06:11:55;;;;;;;;;;;;;;;22.31;29.32;98017.47;4938276;29;959;-75
2023/08/21 06:14:28;;;;;;;;;;;;;;;22.38;29.23;98018.50;4938791;29;1145;-76
2023/08/21 06:16:58;;;;;;;;;;;;;;;22.40;29.23;98013.22;4938390;29;1152;-77
2023/08/21 06:19:24;;;;;;;;;;;;;;;21.99;29.88;98017.59;4938648;29;956;-77
2023/08/21 06:21:49;;;;;;;;;;;;;;;22.39;29.08;98023.75;4938451;29;1013;-76
2023/08/21 06:24:15;;;;;;;;;;;;;;;22.29;29.13;98025.66;4922079;29;1907;-76
2023/08/21 06:26:40;;;;;;;;;;;;;;;22.34;29.21;98027.94;4938082;29;1271;-76
2023/08/21 06:29:06;;;;;;;;;;;;;;;22.39;29.36;98020.13;4906874;29;1208;-76
2023/08/21 06:31:31;;;;;;;;;;;;;;;22.17;29.74;98034.88;4921559;29;1871;-76
2023/08/21 06:33:57;;;;;;;;;;;;;;;22.34;29.44;98033.59;4918612;29;1481;-76
2023/08/21 06:36:23;;;;;;;;;;;;;;;22.44;29.09;98030.91;4887869;29;1114;-76
2023/08/21 06:38:48;;;;;;;;;;;;;;;22.43;29.27;98023.63;4899994;29;1229;-76
2023/08/21 06:41:14;;;;;;;;;;;;;;;22.36;29.20;98033.94;4869846;29;1218;-76
2023/08/21 06:43:41;;;;;;;;;;;;;;;22.34;29.20;98033.59;4863049;29;1964;-76
2023/08/21 06:46:07;;;;;;;;;;;;;;;22.29;29.49;98037.00;4846819;29;1873;-76
2023/08/21 06:48:34;;;;;;;;;;;;;;;22.12;29.97;98045.97;4878150;29;1215;-76
2023/08/21 06:50:59;;;;;;;;;;;;;;;22.28;29.48;98041.06;4878339;29;960;-76
2023/08/21 06:53:25;;;;;;;;;;;;;;;22.06;30.08;98040.03;4878164;29;1072;-76
2023/08/21 06:55:50;;;;;;;;;;;;;;;22.29;29.81;98042.66;4847092;29;965;-76
2023/08/21 06:58:16;;;;;;;;;;;;;;;22.21;29.52;98048.97;4862297;29;946;-76
2023/08/21 07:00:41;;;;;;;;;;;;;;;22.42;29.22;98044.72;4848945;29;1962;-76
2023/08/21 07:03:07;;;;;;;;;;;;;;;22.36;29.40;98042.44;4849750;29;1978;-76
2023/08/21 07:05:35;;;;;;;;;;;;;;;22.29;29.46;98048.31;4865320;29;1093;-75
2023/08/21 07:08:01;;;;;;;;;;;;;;;22.48;29.25;98051.44;4865468;29;987;-76
2023/08/21 07:10:26;;;;;;;;;;;;;;;22.53;29.27;98057.34;4899789;29;958;-76
2023/08/21 07:12:53;;;;;;;;;;;;;;;22.50;29.27;98049.75;4922438;29;1086;-76
2023/08/21 07:15:18;;;;;;;;;;;;;;;22.55;29.04;98054.06;4923771;29;2066;-76
2023/08/21 07:17:44;;;;;;;;;;;;;;;22.46;29.44;98045.41;4920397;29;1978;-76
2023/08/21 07:20:10;;;;;;;;;;;;;;;22.20;29.59;98062.34;4934094;29;1933;-76
2023/08/21 07:22:36;;;;;;;;;;;;;;;22.00;30.11;98058.84;4941731;29;1977;-76
2023/08/21 07:25:04;;;;;;;;;;;;;;;22.41;29.12;98049.59;4958443;29;904;-76
2023/08/21 07:27:30;;;;;;;;;;;;;;;22.26;29.55;98065.44;4941599;29;1307;-76
2023/08/21 07:29:55;;;;;;;;;;;;;;;22.25;29.81;98052.50;4958733;29;993;-75
2023/08/21 07:32:21;;;;;;;;;;;;;;;22.58;29.08;98053.16;4924954;28;1882;-77
2023/08/21 07:34:46;;;;;;;;;;;;;;;22.45;29.43;98049.50;4960777;28;954;-76
2023/08/21 07:37:12;;;;;;;;;;;;;;;22.42;29.63;98050.41;4935780;29;1770;-76
2023/08/21 07:39:37;;;;;;;;;;;;;;;22.50;29.34;98051.78;4936772;29;985;-76
2023/08/21 07:42:03;;;;;;;;;;;;;;;22.31;29.34;98057.16;4936615;29;1708;-75
2023/08/21 07:44:28;;;;;;;;;;;;;;;22.35;29.33;98057.88;4936848;29;1911;-77
2023/08/21 07:46:54;;;;;;;;;;;;;;;22.35;29.67;98046.53;4893142;29;1085;-76
2023/08/21 07:49:19;;;;;;;;;;;;;;;22.29;29.86;98042.66;4899131;29;942;-75
2023/08/21 07:51:45;;;;;;;;;;;;;;;22.20;30.07;98056.69;4883391;29;981;-76
2023/08/21 07:54:10;;;;;;;;;;;;;;;22.15;30.09;98047.94;4895630;29;2408;-76
2023/08/21 07:56:36;;;;;;;;;;;;;;;22.25;29.79;98058.97;4880044;29;1170;-76
2023/08/21 07:59:02;;;;;;;;;;;;;;;22.43;29.62;98057.66;4880137;29;1006;-77
2023/08/21 08:01:28;;;;;;;;;;;;;;;22.39;29.59;98068.31;4883177;29;1003;-76
2023/08/21 08:03:53;;;;;;;;;;;;;;;22.43;29.34;98063.31;4880251;29;1907;-75
2023/08/21 08:06:19;;;;;;;;;;;;;;;22.27;29.73;98062.13;4879989;29;968;-77
2023/08/21 08:08:44;;;;;;;;;;;;;;;22.33;29.41;98063.19;4893711;29;964;-75
2023/08/21 08:11:10;;;;;;;;;;;;;;;22.51;29.55;98065.50;4901841;29;1831;-76
2023/08/21 08:13:35;;;;;;;;;;;;;;;22.39;29.59;98056.97;4917314;29;995;-76
2023/08/21 08:16:01;;;;;;;;;;;;;;;22.41;29.57;98066.63;4917634;29;989;-76
2023/08/21 08:18:26;;;;;;;;;;;;;;;22.20;29.79;98059.50;4961617;28;1052;-76
2023/08/21 08:20:52;;;;;;;;;;;;;;;22.08;30.23;98060.25;4976410;28;1928;-76
2023/08/21 08:23:19;;;;;;;;;;;;;;;22.07;30.03;98058.63;4955345;28;1914;-76
2023/08/21 08:25:44;;;;;;;;;;;;;;;22.48;29.43;98055.06;4949057;28;1662;-75
2023/08/21 08:28:10;;;;;;;;;;;;;;;22.18;29.98;98059.19;4977094;28;927;-76
2023/08/21 08:30:35;;;;;;;;;;;;;;;22.39;29.84;98056.97;4959687;28;1525;-76
2023/08/21 08:33:01;;;;;;;;;;;;;;;22.51;29.55;98059.03;4958979;28;883;-76
2023/08/21 08:35:26;;;;;;;;;;;;;;;22.39;29.83;98062.66;4956811;28;892;-76
2023/08/21 08:37:52;;;;;;;;;;;;;;;22.33;29.85;98043.34;4941082;29;963;-76
2023/08/21 08:40:17;;;;;;;;;;;;;;;22.23;29.91;98052.16;4957637;29;921;-76
2023/08/21 08:42:43;;;;;;;;;;;;;;;22.18;30.04;98053.50;4893256;29;1970;-77
2023/08/21 08:45:08;;;;;;;;;;;;;;;22.28;30.02;98035.41;4898420;29;1240;-76
2023/08/21 08:47:34;;;;;;;;;;;;;;;22.06;30.42;98045.72;4898243;29;1150;-76
2023/08/21 08:50:03;;;;;;;;;;;;;;;22.44;29.55;98040.22;4898395;29;989;-76
2023/08/21 08:52:29;;;;;;;;;;;;;;;22.20;29.85;98034.00;4901413;29;1078;-76
2023/08/21 08:54:54;;;;;;;;;;;;;;;22.28;29.80;98038.25;4887942;29;1228;-76
2023/08/21 08:57:20;;;;;;;;;;;;;;;22.36;29.66;98030.31;4905264;29;959;-77
2023/08/21 08:59:45;;;;;;;;;;;;;;;22.38;29.63;98032.69;4920636;29;955;-77
2023/08/21 09:02:11;;;;;;;;;;;;;;;22.25;29.95;98029.84;4920809;29;1033;-76
2023/08/21 09:04:37;;;;;;;;;;;;;;;22.62;29.16;98022.66;4886066;29;1970;-76
2023/08/21 09:07:06;;;;;;;;;;;;;;;22.27;29.98;98028.13;4901545;29;1019;-76
2023/08/21 09:09:37;;;;;;;;;;;;;;;22.26;29.96;98025.75;4901428;29;1097;-76
2023/08/21 09:12:06;;;;;;;;;;;;;;;22.27;29.87;98019.63;4901392;29;1045;-76
2023/08/21 09:14:32;;;;;;;;;;;;;;;22.29;29.75;98024.88;4933696;29;956;-76
2023/08/21 09:17:03;;;;;;;;;;;;;;;22.53;29.48;98017.63;4923793;29;939;-75
2023/08/21 09:19:29;;;;;;;;;;;;;;;22.24;29.88;98014.88;4939489;29;1571;-76
2023/08/21 09:21:54;;;;;;;;;;;;;;;22.63;29.13;98012.88;4923520;29;1118;-76
2023/08/21 09:24:20;;;;;;;;;;;;;;;22.60;29.31;98022.31;4923188;29;1978;-76
2023/08/21 09:26:45;;;;;;;;;;;;;;;22.47;29.32;98018.66;4939306;29;1019;-76
2023/08/21 09:29:11;;;;;;;;;;;;;;;22.26;29.61;98025.75;4938931;29;1014;-76
2023/08/21 09:31:36;;;;;;;;;;;;;;;22.28;29.71;98023.28;4939411;29;1059;-77
2023/08/21 09:34:05;;;;;;;;;;;;;;;22.26;29.66;98014.41;4939277;29;1011;-76
2023/08/21 09:36:31;;;;;;;;;;;;;;;22.26;29.60;98014.41;4939240;29;977;-76
2023/08/21 09:38:56;;;;;;;;;;;;;;;22.20;29.69;98011.34;4938904;29;978;-76
2023/08/21 09:41:22;;;;;;;;;;;;;;;22.42;29.48;98010.69;4943875;29;999;-74
2023/08/21 09:43:48;;;;;;;;;;;;;;;22.49;29.09;98004.84;4951800;28;1911;-75
2023/08/21 09:46:14;;;;;;;;;;;;;;;22.15;29.75;98016.75;4999635;28;1500;-75
2023/08/21 09:48:39;;;;;;;;;;;;;;;22.48;28.94;98011.72;5016376;28;948;-74
2023/08/21 09:51:05;;;;;;;;;;;;;;;22.49;28.86;98014.13;4999672;28;1420;-74
2023/08/21 09:53:30;;;;;;;;;;;;;;;22.42;28.82;98022.84;4999586;28;1182;-74
2023/08/21 09:55:56;;;;;;;;;;;;;;;22.11;29.38;98002.69;4999820;28;1136;-74
2023/08/21 09:58:21;;;;;;;;;;;;;;;22.29;29.39;98002.97;5016362;28;930;-75
2023/08/21 10:00:50;;;;;;;;;;;;;;;22.42;29.03;98010.69;5007876;28;956;-74
2023/08/21 10:03:18;;;;;;;;;;;;;;;22.42;29.22;98005.03;4964292;28;1907;-75
2023/08/21 10:05:43;;;;;;;;;;;;;;;22.49;29.09;98010.50;4979820;28;946;-75
2023/08/21 10:08:09;;;;;;;;;;;;;;;22.52;28.63;97993.38;4979954;28;1046;-74
2023/08/21 10:10:35;;;;;;;;;;;;;;;22.56;28.65;97999.72;4963947;28;953;-74
2023/08/21 10:13:00;;;;;;;;;;;;;;;22.42;28.98;97999.38;4964298;28;1288;-74
2023/08/21 10:15:29;;;;;;;;;;;;;;;22.32;29.28;97996.38;4979920;28;1959;-74
2023/08/21 10:17:54;;;;;;;;;;;;;;;22.60;28.33;97993.97;4998869;28;1127;-74
2023/08/21 10:20:24;;;;;;;;;;;;;;;22.44;28.84;97999.72;5015705;28;1045;-74
2023/08/21 10:22:50;;;;;;;;;;;;;;;22.51;28.86;97985.31;4993982;28;1970;-75
2023/08/21 10:25:16;;;;;;;;;;;;;;;22.41;29.08;97987.22;4961898;28;911;-74
2023/08/21 10:27:42;;;;;;;;;;;;;;;22.45;29.00;97992.81;4945957;28;1101;-74
2023/08/21 10:30:15;;;;;;;;;;;;;;;22.38;29.19;97987.31;4977703;28;960;-74
2023/08/21 10:32:47;;;;;;;;;;;;;;;22.47;28.89;97996.75;4945993;28;1122;-74
2023/08/21 10:35:17;;;;;;;;;;;;;;;22.33;29.13;97969.66;4958304;28;1022;-74
2023/08/21 10:38:02;;;;;;;;;;;;;;;22.23;29.41;97976.44;4958151;29;926;-74
2023/08/21 10:40:28;;;;;;;;;;;;;;;22.38;29.11;97981.66;4959549;29;1039;-74
2023/08/21 10:42:54;;;;;;;;;;;;;;;22.27;28.96;97991.28;4958420;29;1899;-74
2023/08/21 10:45:19;;;;;;;;;;;;;;;22.53;28.78;97977.94;4959598;29;1735;-74
2023/08/21 10:47:47;;;;;;;;;;;;;;;22.36;29.03;97985.75;4958455;29;919;-75
2023/08/21 10:50:12;;;;;;;;;;;;;;;22.36;28.76;97977.25;4941734;29;950;-75
2023/08/21 10:52:39;;;;;;;;;;;;;;;22.49;28.74;97965.16;4973562;28;959;-74
2023/08/21 10:55:05;;;;;;;;;;;;;;;22.54;28.51;97967.41;4961377;28;1230;-74
2023/08/21 10:57:31;;;;;;;;;;;;;;;22.54;28.89;97973.09;4961235;28;945;-74
2023/08/21 10:59:57;;;;;;;;;;;;;;;22.54;28.79;97975.94;4961227;28;920;-74
2023/08/21 11:02:23;;;;;;;;;;;;;;;22.14;29.24;97979.13;4978550;28;1017;-74
2023/08/21 11:04:49;;;;;;;;;;;;;;;22.52;28.64;97969.88;4943711;28;1914;-74
2023/08/21 11:07:15;;;;;;;;;;;;;;;22.30;29.13;97976.22;4937526;29;1074;-75
2023/08/21 11:09:40;;;;;;;;;;;;;;;22.44;28.86;97971.38;4936935;29;887;-74
2023/08/21 11:12:09;;;;;;;;;;;;;;;22.59;28.41;97975.38;4937160;29;918;-74
2023/08/21 11:14:37;;;;;;;;;;;;;;;22.69;28.58;97968.56;4953256;29;1080;-74
2023/08/21 11:17:03;;;;;;;;;;;;;;;22.52;28.47;97967.06;4920605;29;1752;-74
2023/08/21 11:19:32;;;;;;;;;;;;;;;22.41;28.71;97969.44;4921307;29;1013;-74
2023/08/21 11:22:00;;;;;;;;;;;;;;;22.50;28.82;97966.72;4921326;29;1075;-74
2023/08/21 11:24:31;;;;;;;;;;;;;;;22.49;28.73;97965.16;4921751;29;1911;-74
2023/08/21 11:26:57;;;;;;;;;;;;;;;22.44;28.71;97954.38;4936796;29;957;-74
2023/08/21 11:29:23;;;;;;;;;;;;;;;22.35;28.83;97955.81;4919824;29;1789;-74
2023/08/21 11:31:48;;;;;;;;;;;;;;;22.47;28.82;97961.94;4933046;29;1549;-75
2023/08/21 11:34:20;;;;;;;;;;;;;;;22.28;28.93;97970.22;4916363;29;1814;-74
2023/08/21 11:36:46;;;;;;;;;;;;;;;22.61;28.68;97961.50;4886501;29;1449;-74
2023/08/21 11:39:12;;;;;;;;;;;;;;;22.56;28.62;97957.19;4935774;29;1688;-74
2023/08/21 11:41:56;;;;;;;;;;;;;;;22.65;28.22;97973.53;4939968;29;1125;-74
2023/08/21 11:44:21;;;;;;;;;;;;;;;22.53;28.63;97958.09;4923891;29;1907;-74
2023/08/21 11:46:47;;;;;;;;;;;;;;;22.29;28.94;97951.94;4924046;29;1364;-74
2023/08/21 11:49:13;;;;;;;;;;;;;;;22.51;28.72;97954.13;4939109;29;1310;-74
2023/08/21 11:51:39;;;;;;;;;;;;;;;22.58;28.59;97956.72;4939985;29;887;-75
2023/08/21 11:54:04;;;;;;;;;;;;;;;22.69;28.45;97956.41;4923673;29;1043;-74
2023/08/21 11:56:30;;;;;;;;;;;;;;;22.61;28.58;97955.84;4939796;29;1341;-75
2023/08/21 11:58:55;;;;;;;;;;;;;;;22.40;28.63;97953.66;4919846;29;1915;-74
2023/08/21 12:01:21;;;;;;;;;;;;;;;22.48;28.66;97952.19;4936644;29;1117;-74
2023/08/21 12:03:54;;;;;;;;;;;;;;;22.40;28.67;97957.31;4920562;29;1903;-74
2023/08/21 12:06:19;;;;;;;;;;;;;;;22.36;29.12;97946.06;4956005;29;954;-74
2023/08/21 12:08:45;;;;;;;;;;;;;;;22.53;28.47;97960.13;4939323;28;1798;-75
2023/08/21 12:11:11;;;;;;;;;;;;;;;22.54;28.74;97950.41;4939466;29;1034;-74
2023/08/21 12:13:36;;;;;;;;;;;;;;;22.41;28.87;97958.09;4908085;29;961;-73
2023/08/21 12:16:02;;;;;;;;;;;;;;;22.27;29.12;97948.75;4939672;29;1009;-74
2023/08/21 12:18:28;;;;;;;;;;;;;;;22.52;28.57;97955.72;4922424;29;1986;-75
2023/08/21 12:20:54;;;;;;;;;;;;;;;22.70;28.34;97964.47;4899915;29;1623;-74
2023/08/21 12:23:19;;;;;;;;;;;;;;;22.74;28.22;97950.97;4898359;29;1903;-74
2023/08/21 12:25:45;;;;;;;;;;;;;;;22.78;28.30;97965.81;4898399;29;1039;-74
2023/08/21 12:28:10;;;;;;;;;;;;;;;22.70;28.50;97958.00;4898944;29;1240;-74
2023/08/21 12:30:36;;;;;;;;;;;;;;;22.59;28.63;97958.34;4899501;29;1448;-74
2023/08/21 12:33:02;;;;;;;;;;;;;;;22.57;28.72;97960.81;4886737;29;1952;-74
2023/08/21 12:35:27;;;;;;;;;;;;;;;22.54;28.78;97956.06;4902468;29;995;-75
2023/08/21 12:37:56;;;;;;;;;;;;;;;22.41;28.64;97958.09;4886418;29;1018;-74
2023/08/21 12:40:22;;;;;;;;;;;;;;;22.48;28.83;97960.69;4916673;29;1706;-75
2023/08/21 12:42:47;;;;;;;;;;;;;;;22.53;28.70;97951.63;4923904;29;1907;-74
2023/08/21 12:45:13;;;;;;;;;;;;;;;22.61;28.62;97961.50;4939945;29;1278;-74
2023/08/21 12:47:38;;;;;;;;;;;;;;;22.29;28.89;97957.63;4923680;29;976;-74
2023/08/21 12:50:04;;;;;;;;;;;;;;;22.51;28.90;97951.28;4924867;29;2038;-75
2023/08/21 12:52:30;;;;;;;;;;;;;;;22.35;29.06;97944.47;4919991;29;961;-74
2023/08/21 12:54:55;;;;;;;;;;;;;;;22.21;29.33;97956.22;4942389;29;1220;-74